BLY93Q EGSS-EGPH
Flight info
| Callsign | BLY93Q |
|---|---|
| Flight time | 0h 57m |
| Altitude | 32000 |
| Route | UTAVA Q75 BUZAD T420 TNT UN57 POL UN601 RIBEL DCT INPIP |
| Aircraft | A321/M-SDE3FGHIRWY/LB1 |
Departure
| Time | 2026-04-21 21:01 |
|---|---|
| Airport | London Stansted Airport (EGSS) |
Arrival
| Time | 2026-04-21 21:58 |
|---|---|
| Airport | Edinburgh Airport (EGPH) |
| Time | Latitude | Longitude | Altitude | Speed | Heading |
|---|---|---|---|---|---|
| 2026-04-21 20:30 | 51.89591 | 0.26662 | 350 ft | 0 kts | 45° |
| 2026-04-21 20:40 | 51.89583 | 0.26649 | 356 ft | 3 kts | 43° |
| 2026-04-21 20:41 | 51.89568 | 0.26628 | 354 ft | 3 kts | 36° |
| 2026-04-21 20:41 | 51.89551 | 0.26610 | 356 ft | 3 kts | 25° |
| 2026-04-21 20:41 | 51.89533 | 0.26599 | 354 ft | 3 kts | 4° |
| 2026-04-21 20:41 | 51.89516 | 0.26602 | 352 ft | 2 kts | 321° |
| 2026-04-21 20:42 | 51.89512 | 0.26606 | 352 ft | 0 kts | 313° |
| 2026-04-21 20:47 | 51.89513 | 0.26606 | 352 ft | 0 kts | 313° |
| 2026-04-21 20:48 | 51.89527 | 0.26579 | 351 ft | 6 kts | 310° |
| 2026-04-21 20:48 | 51.89562 | 0.26514 | 351 ft | 10 kts | 311° |
| 2026-04-21 20:48 | 51.89620 | 0.26414 | 354 ft | 13 kts | 313° |
| 2026-04-21 20:48 | 51.89685 | 0.26299 | 350 ft | 14 kts | 313° |
| 2026-04-21 20:49 | 51.89746 | 0.26190 | 349 ft | 9 kts | 304° |
| 2026-04-21 20:49 | 51.89721 | 0.26096 | 342 ft | 11 kts | 227° |
| 2026-04-21 20:49 | 51.89651 | 0.25990 | 344 ft | 15 kts | 223° |
| 2026-04-21 20:49 | 51.89570 | 0.25866 | 350 ft | 17 kts | 223° |
| 2026-04-21 20:50 | 51.89481 | 0.25733 | 347 ft | 18 kts | 223° |
| 2026-04-21 20:50 | 51.89389 | 0.25597 | 351 ft | 18 kts | 223° |
| 2026-04-21 20:50 | 51.89295 | 0.25456 | 349 ft | 19 kts | 222° |
| 2026-04-21 20:50 | 51.89200 | 0.25312 | 352 ft | 18 kts | 223° |
| 2026-04-21 20:51 | 51.89105 | 0.25169 | 348 ft | 19 kts | 223° |
| 2026-04-21 20:51 | 51.89006 | 0.25021 | 352 ft | 19 kts | 222° |
| 2026-04-21 20:51 | 51.88909 | 0.24876 | 348 ft | 19 kts | 223° |
| 2026-04-21 20:51 | 51.88811 | 0.24729 | 351 ft | 20 kts | 223° |
| 2026-04-21 20:52 | 51.88713 | 0.24582 | 351 ft | 19 kts | 223° |
| 2026-04-21 20:52 | 51.88613 | 0.24431 | 348 ft | 20 kts | 223° |
| 2026-04-21 20:52 | 51.88512 | 0.24280 | 347 ft | 20 kts | 223° |
| 2026-04-21 20:52 | 51.88407 | 0.24122 | 345 ft | 21 kts | 223° |
| 2026-04-21 20:53 | 51.88303 | 0.23967 | 335 ft | 20 kts | 223° |
| 2026-04-21 20:53 | 51.88227 | 0.23852 | 335 ft | 14 kts | 223° |
| 2026-04-21 20:53 | 51.88153 | 0.23741 | 334 ft | 15 kts | 223° |
| 2026-04-21 20:53 | 51.88071 | 0.23618 | 335 ft | 17 kts | 223° |
| 2026-04-21 20:54 | 51.87984 | 0.23488 | 336 ft | 18 kts | 223° |
| 2026-04-21 20:54 | 51.87891 | 0.23350 | 335 ft | 18 kts | 223° |
| 2026-04-21 20:54 | 51.87796 | 0.23206 | 335 ft | 19 kts | 223° |
| 2026-04-21 20:54 | 51.87731 | 0.23070 | 335 ft | 13 kts | 265° |
| 2026-04-21 20:55 | 51.87779 | 0.22952 | 334 ft | 13 kts | 312° |
| 2026-04-21 20:55 | 51.87822 | 0.22877 | 336 ft | 0 kts | 313° |
| 2026-04-21 20:55 | 51.87832 | 0.22860 | 335 ft | 3 kts | 313° |
| 2026-04-21 20:56 | 51.87853 | 0.22824 | 336 ft | 6 kts | 313° |
| 2026-04-21 20:56 | 51.87873 | 0.22790 | 335 ft | 0 kts | 313° |
| 2026-04-21 20:57 | 51.87873 | 0.22789 | 335 ft | 0 kts | 313° |
| 2026-04-21 20:58 | 51.87894 | 0.22753 | 332 ft | 8 kts | 313° |
| 2026-04-21 20:58 | 51.87936 | 0.22685 | 333 ft | 8 kts | 332° |
| 2026-04-21 20:58 | 51.87985 | 0.22708 | 332 ft | 2 kts | 40° |
| 2026-04-21 21:00 | 51.88074 | 0.22839 | 332 ft | 51 kts | 43° |
| 2026-04-21 21:00 | 51.88507 | 0.23490 | 334 ft | 116 kts | 43° |
| 2026-04-21 21:01 | 51.89223 | 0.24559 | 506 ft | 151 kts | 42° |
| 2026-04-21 21:01 | 51.89965 | 0.25693 | 1293 ft | 146 kts | 47° |
| 2026-04-21 21:01 | 51.90703 | 0.26811 | 2012 ft | 145 kts | 49° |
| 2026-04-21 21:01 | 51.91465 | 0.27966 | 2425 ft | 158 kts | 49° |
| 2026-04-21 21:02 | 51.92321 | 0.29275 | 2618 ft | 181 kts | 48° |
| 2026-04-21 21:02 | 51.93299 | 0.30766 | 2813 ft | 206 kts | 46° |
| 2026-04-21 21:02 | 51.94635 | 0.31949 | 3083 ft | 240 kts | 17° |
| 2026-04-21 21:02 | 51.96370 | 0.31676 | 3608 ft | 266 kts | 340° |
| 2026-04-21 21:03 | 51.97806 | 0.29698 | 4271 ft | 283 kts | 304° |
| 2026-04-21 21:03 | 51.98374 | 0.26645 | 4992 ft | 289 kts | 269° |
| 2026-04-21 21:03 | 51.98061 | 0.23415 | 5719 ft | 291 kts | 256° |
| 2026-04-21 21:03 | 51.97648 | 0.20190 | 6474 ft | 294 kts | 263° |
| 2026-04-21 21:04 | 51.97783 | 0.16924 | 7149 ft | 296 kts | 281° |
| 2026-04-21 21:04 | 51.98147 | 0.13624 | 7872 ft | 299 kts | 281° |
| 2026-04-21 21:04 | 51.98518 | 0.10294 | 8599 ft | 301 kts | 281° |
| 2026-04-21 21:04 | 51.98874 | 0.06889 | 9313 ft | 305 kts | 275° |
| 2026-04-21 21:05 | 51.98790 | 0.03487 | 9985 ft | 307 kts | 262° |
| 2026-04-21 21:05 | 51.98528 | 0.00027 | 10614 ft | 314 kts | 262° |
| 2026-04-21 21:05 | 51.98246 | -0.03618 | 10747 ft | 336 kts | 262° |
| 2026-04-21 21:05 | 51.97946 | -0.07493 | 10929 ft | 356 kts | 262° |
| 2026-04-21 21:06 | 51.97637 | -0.11524 | 11432 ft | 362 kts | 262° |
| 2026-04-21 21:06 | 51.97329 | -0.15584 | 12056 ft | 365 kts | 262° |
| 2026-04-21 21:06 | 51.97016 | -0.19687 | 12716 ft | 368 kts | 263° |
| 2026-04-21 21:06 | 51.96697 | -0.23819 | 13363 ft | 370 kts | 263° |
| 2026-04-21 21:07 | 51.96368 | -0.28035 | 14021 ft | 373 kts | 263° |
| 2026-04-21 21:07 | 51.96042 | -0.32221 | 14597 ft | 376 kts | 263° |
| 2026-04-21 21:07 | 51.95711 | -0.36437 | 15193 ft | 378 kts | 263° |
| 2026-04-21 21:07 | 51.95379 | -0.40677 | 15763 ft | 381 kts | 263° |
| 2026-04-21 21:08 | 51.95084 | -0.44960 | 16323 ft | 384 kts | 269° |
| 2026-04-21 21:08 | 51.95282 | -0.49272 | 16886 ft | 385 kts | 283° |
| 2026-04-21 21:08 | 51.96107 | -0.53390 | 17464 ft | 385 kts | 297° |
| 2026-04-21 21:08 | 51.97508 | -0.57076 | 18005 ft | 385 kts | 311° |
| 2026-04-21 21:09 | 51.99411 | -0.60129 | 18562 ft | 385 kts | 324° |
| 2026-04-21 21:09 | 52.01632 | -0.62442 | 19121 ft | 384 kts | 331° |
| 2026-04-21 21:09 | 52.03919 | -0.64661 | 19764 ft | 382 kts | 330° |
| 2026-04-21 21:09 | 52.06200 | -0.66895 | 20348 ft | 382 kts | 329° |
| 2026-04-21 21:10 | 52.08476 | -0.69138 | 20920 ft | 383 kts | 329° |
| 2026-04-21 21:10 | 52.10755 | -0.71390 | 21528 ft | 383 kts | 329° |
| 2026-04-21 21:10 | 52.13024 | -0.73635 | 22120 ft | 382 kts | 328° |
| 2026-04-21 21:10 | 52.15297 | -0.75886 | 22707 ft | 381 kts | 328° |
| 2026-04-21 21:11 | 52.17559 | -0.78123 | 23273 ft | 381 kts | 328° |
| 2026-04-21 21:11 | 52.19828 | -0.80364 | 23825 ft | 380 kts | 328° |
| 2026-04-21 21:11 | 52.22099 | -0.82609 | 24277 ft | 381 kts | 328° |
| 2026-04-21 21:11 | 52.24359 | -0.84847 | 24694 ft | 381 kts | 328° |
| 2026-04-21 21:12 | 52.26636 | -0.87104 | 25096 ft | 382 kts | 328° |
| 2026-04-21 21:12 | 52.28904 | -0.89357 | 25476 ft | 384 kts | 328° |
| 2026-04-21 21:12 | 52.31207 | -0.91649 | 25686 ft | 390 kts | 328° |
| 2026-04-21 21:12 | 52.33534 | -0.93965 | 26018 ft | 393 kts | 328° |
| 2026-04-21 21:13 | 52.35869 | -0.96292 | 26403 ft | 393 kts | 328° |
| 2026-04-21 21:13 | 52.38206 | -0.98622 | 26812 ft | 394 kts | 328° |
| 2026-04-21 21:13 | 52.40540 | -1.00950 | 27253 ft | 393 kts | 327° |
| 2026-04-21 21:13 | 52.42873 | -1.03284 | 27650 ft | 392 kts | 327° |
| 2026-04-21 21:14 | 52.44414 | -1.04830 | 27897 ft | 392 kts | 327° |
| 2026-04-21 21:14 | 52.46742 | -1.07168 | 28249 ft | 393 kts | 327° |
| 2026-04-21 21:14 | 52.49084 | -1.09521 | 28592 ft | 395 kts | 327° |
| 2026-04-21 21:14 | 52.51427 | -1.11876 | 28904 ft | 396 kts | 327° |
| 2026-04-21 21:15 | 52.53776 | -1.14242 | 29225 ft | 397 kts | 327° |
| 2026-04-21 21:15 | 52.56136 | -1.16625 | 29572 ft | 398 kts | 327° |
| 2026-04-21 21:15 | 52.58505 | -1.19020 | 29911 ft | 400 kts | 327° |
| 2026-04-21 21:15 | 52.60871 | -1.21413 | 30247 ft | 401 kts | 327° |
| 2026-04-21 21:16 | 52.63261 | -1.23829 | 30542 ft | 401 kts | 327° |
| 2026-04-21 21:16 | 52.65641 | -1.26235 | 30893 ft | 401 kts | 327° |
| 2026-04-21 21:16 | 52.68016 | -1.28640 | 31217 ft | 401 kts | 326° |
| 2026-04-21 21:16 | 52.70390 | -1.31048 | 31530 ft | 401 kts | 326° |
| 2026-04-21 21:17 | 52.72768 | -1.33465 | 31846 ft | 401 kts | 326° |
| 2026-04-21 21:17 | 52.75143 | -1.35882 | 32320 ft | 402 kts | 326° |
| 2026-04-21 21:17 | 52.77523 | -1.38305 | 32631 ft | 403 kts | 326° |
| 2026-04-21 21:17 | 52.79915 | -1.40742 | 32892 ft | 404 kts | 326° |
| 2026-04-21 21:18 | 52.82305 | -1.43186 | 33159 ft | 405 kts | 326° |
| 2026-04-21 21:18 | 52.84703 | -1.45644 | 33425 ft | 406 kts | 326° |
| 2026-04-21 21:18 | 52.87106 | -1.48111 | 33699 ft | 407 kts | 326° |
| 2026-04-21 21:18 | 52.89483 | -1.50552 | 33960 ft | 408 kts | 326° |
| 2026-04-21 21:19 | 52.91928 | -1.53068 | 34132 ft | 410 kts | 326° |
| 2026-04-21 21:19 | 52.94330 | -1.55547 | 34298 ft | 412 kts | 326° |
| 2026-04-21 21:19 | 52.96774 | -1.58072 | 34403 ft | 416 kts | 326° |
| 2026-04-21 21:19 | 52.99238 | -1.60621 | 34401 ft | 420 kts | 326° |
| 2026-04-21 21:20 | 53.04261 | -1.65797 | 34398 ft | 427 kts | 328° |
| 2026-04-21 21:20 | 53.09749 | -1.69677 | 34394 ft | 428 kts | 337° |
| 2026-04-21 21:21 | 53.12501 | -1.71368 | 34400 ft | 416 kts | 336° |
| 2026-04-21 21:21 | 53.15193 | -1.73033 | 34414 ft | 412 kts | 336° |
| 2026-04-21 21:21 | 53.20543 | -1.76364 | 34414 ft | 410 kts | 336° |
| 2026-04-21 21:22 | 53.25893 | -1.79701 | 34422 ft | 412 kts | 337° |
| 2026-04-21 21:22 | 53.31283 | -1.83060 | 34420 ft | 414 kts | 337° |
| 2026-04-21 21:23 | 53.36693 | -1.86451 | 34418 ft | 415 kts | 337° |
| 2026-04-21 21:23 | 53.42099 | -1.89851 | 34422 ft | 415 kts | 337° |
| 2026-04-21 21:24 | 53.47515 | -1.93263 | 34439 ft | 416 kts | 337° |
| 2026-04-21 21:24 | 53.52895 | -1.96663 | 34441 ft | 416 kts | 337° |
| 2026-04-21 21:25 | 53.58318 | -2.00097 | 34445 ft | 416 kts | 337° |
| 2026-04-21 21:25 | 53.63738 | -2.03530 | 34447 ft | 416 kts | 337° |
| 2026-04-21 21:26 | 53.69151 | -2.06959 | 34447 ft | 416 kts | 337° |
| 2026-04-21 21:26 | 53.74562 | -2.10415 | 34444 ft | 415 kts | 336° |
| 2026-04-21 21:27 | 53.79929 | -2.14002 | 34441 ft | 415 kts | 335° |
| 2026-04-21 21:27 | 53.85278 | -2.17713 | 34448 ft | 415 kts | 335° |
| 2026-04-21 21:28 | 53.90635 | -2.21413 | 34454 ft | 416 kts | 335° |
| 2026-04-21 21:29 | 53.98680 | -2.26949 | 34462 ft | 416 kts | 336° |
| 2026-04-21 21:29 | 54.04053 | -2.30636 | 34457 ft | 417 kts | 336° |
| 2026-04-21 21:30 | 54.09444 | -2.34353 | 34448 ft | 418 kts | 335° |
| 2026-04-21 21:30 | 54.14838 | -2.38085 | 34454 ft | 419 kts | 335° |
| 2026-04-21 21:31 | 54.20234 | -2.41836 | 34452 ft | 419 kts | 335° |
| 2026-04-21 21:31 | 54.25633 | -2.45605 | 34470 ft | 420 kts | 336° |
| 2026-04-21 21:32 | 54.31050 | -2.49386 | 34456 ft | 421 kts | 336° |
| 2026-04-21 21:32 | 54.36474 | -2.53180 | 34434 ft | 420 kts | 336° |
| 2026-04-21 21:32 | 54.39158 | -2.55063 | 34134 ft | 414 kts | 335° |
| 2026-04-21 21:33 | 54.41800 | -2.56920 | 33852 ft | 408 kts | 336° |
| 2026-04-21 21:33 | 54.44423 | -2.58768 | 33580 ft | 405 kts | 335° |
| 2026-04-21 21:33 | 54.47018 | -2.60597 | 33322 ft | 401 kts | 335° |
| 2026-04-21 21:33 | 54.49583 | -2.62408 | 32912 ft | 396 kts | 336° |
| 2026-04-21 21:34 | 54.52123 | -2.64208 | 32478 ft | 393 kts | 336° |
| 2026-04-21 21:34 | 54.54633 | -2.65984 | 32035 ft | 389 kts | 336° |
| 2026-04-21 21:34 | 54.57129 | -2.67750 | 31603 ft | 386 kts | 335° |
| 2026-04-21 21:34 | 54.59598 | -2.69498 | 31167 ft | 382 kts | 334° |
| 2026-04-21 21:35 | 54.62046 | -2.71238 | 30751 ft | 378 kts | 334° |
| 2026-04-21 21:35 | 54.64454 | -2.72956 | 30281 ft | 374 kts | 334° |
| 2026-04-21 21:35 | 54.66846 | -2.74666 | 29864 ft | 368 kts | 334° |
| 2026-04-21 21:35 | 54.69185 | -2.76338 | 29583 ft | 358 kts | 334° |
| 2026-04-21 21:36 | 54.71466 | -2.77965 | 29130 ft | 353 kts | 334° |
| 2026-04-21 21:36 | 54.73728 | -2.79581 | 28716 ft | 351 kts | 336° |
| 2026-04-21 21:36 | 54.75971 | -2.81186 | 28334 ft | 348 kts | 336° |
| 2026-04-21 21:36 | 54.78205 | -2.82787 | 27982 ft | 346 kts | 336° |
| 2026-04-21 21:37 | 54.80428 | -2.84381 | 27623 ft | 345 kts | 336° |
| 2026-04-21 21:37 | 54.82646 | -2.85978 | 27269 ft | 345 kts | 336° |
| 2026-04-21 21:37 | 54.84858 | -2.87574 | 26918 ft | 344 kts | 336° |
| 2026-04-21 21:37 | 54.87059 | -2.89163 | 26567 ft | 342 kts | 336° |
| 2026-04-21 21:38 | 54.89259 | -2.90750 | 26127 ft | 344 kts | 337° |
| 2026-04-21 21:38 | 54.91472 | -2.92346 | 25636 ft | 344 kts | 337° |
| 2026-04-21 21:38 | 54.93687 | -2.93946 | 25161 ft | 345 kts | 337° |
| 2026-04-21 21:38 | 54.95905 | -2.95548 | 24678 ft | 347 kts | 338° |
| 2026-04-21 21:39 | 54.98141 | -2.97163 | 24190 ft | 348 kts | 338° |
| 2026-04-21 21:39 | 55.00381 | -2.98790 | 23648 ft | 350 kts | 338° |
| 2026-04-21 21:39 | 55.02626 | -3.00428 | 23167 ft | 349 kts | 338° |
| 2026-04-21 21:39 | 55.04862 | -3.02058 | 22682 ft | 348 kts | 338° |
| 2026-04-21 21:40 | 55.07083 | -3.03674 | 22268 ft | 346 kts | 338° |
| 2026-04-21 21:40 | 55.09299 | -3.05288 | 21911 ft | 342 kts | 338° |
| 2026-04-21 21:40 | 55.11471 | -3.06878 | 21253 ft | 346 kts | 338° |
| 2026-04-21 21:40 | 55.13669 | -3.08492 | 20969 ft | 340 kts | 338° |
| 2026-04-21 21:41 | 55.15854 | -3.10100 | 20370 ft | 341 kts | 338° |
| 2026-04-21 21:41 | 55.18015 | -3.11691 | 20164 ft | 333 kts | 338° |
| 2026-04-21 21:41 | 55.20159 | -3.13264 | 19538 ft | 340 kts | 338° |
| 2026-04-21 21:41 | 55.22382 | -3.14892 | 18522 ft | 351 kts | 338° |
| 2026-04-21 21:42 | 55.24681 | -3.16574 | 17575 ft | 363 kts | 339° |
| 2026-04-21 21:42 | 55.27031 | -3.18299 | 17064 ft | 370 kts | 339° |
| 2026-04-21 21:42 | 55.29459 | -3.19686 | 16646 ft | 363 kts | 352° |
| 2026-04-21 21:42 | 55.31956 | -3.20063 | 16333 ft | 358 kts | 5° |
| 2026-04-21 21:43 | 55.34435 | -3.19742 | 15697 ft | 359 kts | 7° |
| 2026-04-21 21:43 | 55.36903 | -3.19364 | 15368 ft | 351 kts | 8° |
| 2026-04-21 21:43 | 55.39305 | -3.18987 | 14767 ft | 342 kts | 8° |
| 2026-04-21 21:43 | 55.41674 | -3.18607 | 14563 ft | 343 kts | 8° |
| 2026-04-21 21:44 | 55.44048 | -3.18220 | 14512 ft | 342 kts | 8° |
| 2026-04-21 21:44 | 55.46422 | -3.17833 | 14530 ft | 343 kts | 8° |
| 2026-04-21 21:44 | 55.48804 | -3.17450 | 14513 ft | 343 kts | 8° |
| 2026-04-21 21:44 | 55.51183 | -3.17071 | 14315 ft | 345 kts | 7° |
| 2026-04-21 21:45 | 55.53601 | -3.16690 | 13670 ft | 347 kts | 7° |
| 2026-04-21 21:45 | 55.55968 | -3.16322 | 13509 ft | 338 kts | 7° |
| 2026-04-21 21:45 | 55.58310 | -3.15959 | 13528 ft | 338 kts | 7° |
| 2026-04-21 21:45 | 55.60670 | -3.15586 | 12901 ft | 344 kts | 8° |
| 2026-04-21 21:46 | 55.63034 | -3.15211 | 12587 ft | 335 kts | 8° |
| 2026-04-21 21:46 | 55.65312 | -3.14855 | 12447 ft | 320 kts | 8° |
| 2026-04-21 21:46 | 55.67453 | -3.14527 | 12146 ft | 299 kts | 8° |
| 2026-04-21 21:46 | 55.69501 | -3.14299 | 11915 ft | 299 kts | 359° |
| 2026-04-21 21:47 | 55.71550 | -3.15253 | 11664 ft | 309 kts | 336° |
| 2026-04-21 21:47 | 55.73243 | -3.17547 | 10863 ft | 310 kts | 309° |
| 2026-04-21 21:47 | 55.74213 | -3.20886 | 10267 ft | 303 kts | 283° |
| 2026-04-21 21:47 | 55.74378 | -3.24569 | 9484 ft | 300 kts | 267° |
| 2026-04-21 21:48 | 55.74256 | -3.28255 | 8724 ft | 298 kts | 265° |
| 2026-04-21 21:48 | 55.74098 | -3.31864 | 8012 ft | 296 kts | 265° |
| 2026-04-21 21:48 | 55.73931 | -3.35489 | 7323 ft | 294 kts | 264° |
| 2026-04-21 21:48 | 55.73760 | -3.39082 | 6645 ft | 291 kts | 264° |
| 2026-04-21 21:49 | 55.73592 | -3.42642 | 5943 ft | 288 kts | 265° |
| 2026-04-21 21:49 | 55.73423 | -3.46177 | 5226 ft | 287 kts | 264° |
| 2026-04-21 21:49 | 55.73313 | -3.49692 | 4567 ft | 281 kts | 275° |
| 2026-04-21 21:49 | 55.73839 | -3.52812 | 4374 ft | 253 kts | 306° |
| 2026-04-21 21:50 | 55.74833 | -3.55239 | 4180 ft | 235 kts | 313° |
| 2026-04-21 21:50 | 55.75835 | -3.57399 | 4098 ft | 217 kts | 314° |
| 2026-04-21 21:50 | 55.76753 | -3.59380 | 3869 ft | 201 kts | 315° |
| 2026-04-21 21:50 | 55.77625 | -3.61293 | 3382 ft | 199 kts | 315° |
| 2026-04-21 21:51 | 55.78488 | -3.63209 | 3007 ft | 196 kts | 314° |
| 2026-04-21 21:51 | 55.79338 | -3.65112 | 3005 ft | 197 kts | 314° |
| 2026-04-21 21:51 | 55.80197 | -3.67028 | 3004 ft | 198 kts | 314° |
| 2026-04-21 21:51 | 55.81065 | -3.68923 | 3001 ft | 197 kts | 319° |
| 2026-04-21 21:52 | 55.82196 | -3.70034 | 2999 ft | 182 kts | 357° |
| 2026-04-21 21:52 | 55.83389 | -3.69804 | 3010 ft | 169 kts | 28° |
| 2026-04-21 21:52 | 55.84290 | -3.68567 | 3009 ft | 162 kts | 56° |
| 2026-04-21 21:52 | 55.84879 | -3.66882 | 3017 ft | 160 kts | 61° |
| 2026-04-21 21:53 | 55.85462 | -3.65189 | 3008 ft | 160 kts | 62° |
| 2026-04-21 21:53 | 55.86027 | -3.63548 | 3010 ft | 148 kts | 61° |
| 2026-04-21 21:53 | 55.86553 | -3.62014 | 3009 ft | 143 kts | 62° |
| 2026-04-21 21:53 | 55.87070 | -3.60506 | 2950 ft | 142 kts | 61° |
| 2026-04-21 21:54 | 55.87581 | -3.59015 | 2826 ft | 140 kts | 62° |
| 2026-04-21 21:54 | 55.88092 | -3.57519 | 2639 ft | 139 kts | 61° |
| 2026-04-21 21:54 | 55.88593 | -3.56054 | 2465 ft | 138 kts | 61° |
| 2026-04-21 21:54 | 55.89092 | -3.54595 | 2274 ft | 137 kts | 61° |
| 2026-04-21 21:55 | 55.89605 | -3.53094 | 2078 ft | 140 kts | 61° |
| 2026-04-21 21:55 | 55.90103 | -3.51635 | 1882 ft | 136 kts | 60° |
| 2026-04-21 21:55 | 55.90591 | -3.50206 | 1697 ft | 135 kts | 60° |
| 2026-04-21 21:55 | 55.91076 | -3.48787 | 1510 ft | 133 kts | 60° |
| 2026-04-21 21:56 | 55.91564 | -3.47368 | 1328 ft | 134 kts | 60° |
| 2026-04-21 21:56 | 55.92045 | -3.45953 | 1126 ft | 134 kts | 60° |
| 2026-04-21 21:56 | 55.92531 | -3.44523 | 918 ft | 133 kts | 59° |
| 2026-04-21 21:56 | 55.92842 | -3.43601 | 817 ft | 132 kts | 60° |
| 2026-04-21 21:57 | 55.93325 | -3.42185 | 608 ft | 134 kts | 59° |
| 2026-04-21 21:57 | 55.93806 | -3.40771 | 414 ft | 134 kts | 58° |
| 2026-04-21 21:57 | 55.94289 | -3.39346 | 267 ft | 135 kts | 59° |
| 2026-04-21 21:57 | 55.94767 | -3.37930 | 124 ft | 123 kts | 59° |
| 2026-04-21 21:58 | 55.95224 | -3.36580 | 105 ft | 71 kts | 58° |
| 2026-04-21 21:58 | 55.95391 | -3.36087 | 100 ft | 26 kts | 59° |
| 2026-04-21 21:58 | 55.95478 | -3.35837 | 100 ft | 22 kts | 58° |
| 2026-04-21 21:58 | 55.95531 | -3.35682 | 103 ft | 22 kts | 59° |
| 2026-04-21 21:59 | 55.95537 | -3.35491 | 101 ft | 16 kts | 149° |
| 2026-04-21 21:59 | 55.95487 | -3.35427 | 102 ft | 0 kts | 148° |
| 2026-04-21 22:00 | 55.95476 | -3.35416 | 103 ft | 4 kts | 150° |
| 2026-04-21 22:00 | 55.95450 | -3.35407 | 104 ft | 5 kts | 184° |
| 2026-04-21 22:00 | 55.95400 | -3.35494 | 105 ft | 13 kts | 238° |
| 2026-04-21 22:00 | 55.95349 | -3.35647 | 103 ft | 17 kts | 239° |
| 2026-04-21 22:01 | 55.95284 | -3.35840 | 102 ft | 19 kts | 238° |
| 2026-04-21 22:01 | 55.95212 | -3.36050 | 101 ft | 20 kts | 238° |
| 2026-04-21 22:01 | 55.95145 | -3.36247 | 104 ft | 18 kts | 239° |
| 2026-04-21 22:01 | 55.95081 | -3.36438 | 107 ft | 17 kts | 238° |
| 2026-04-21 22:02 | 55.95019 | -3.36620 | 107 ft | 18 kts | 239° |
| 2026-04-21 22:02 | 55.94958 | -3.36797 | 106 ft | 13 kts | 233° |
| 2026-04-21 22:02 | 55.94900 | -3.36789 | 105 ft | 1 kts | 128° |
| 2026-04-21 22:02 | 55.94890 | -3.36784 | 104 ft | 4 kts | 160° |
| 2026-04-21 22:03 | 55.94829 | -3.36778 | 105 ft | 11 kts | 179° |
| 2026-04-21 22:03 | 55.94754 | -3.36750 | 105 ft | 11 kts | 160° |
| 2026-04-21 22:03 | 55.94677 | -3.36736 | 107 ft | 11 kts | 179° |
| 2026-04-21 22:03 | 55.94598 | -3.36734 | 107 ft | 9 kts | 178° |
| 2026-04-21 22:04 | 55.94574 | -3.36680 | 106 ft | 6 kts | 102° |
| 2026-04-21 22:04 | 55.94573 | -3.36631 | 106 ft | 0 kts | 91° |
| 2026-04-21 22:04 | 55.94573 | -3.36626 | 106 ft | 0 kts | 91° |